Time;durP1;ratioP1;P1;durP2;ratioP2;P2;SDS_P1;SDS_P2;PMS_P1;PMS_P2;Temp;Humidity;BMP_temperature;BMP_pressure;BME280_temperature;BME280_humidity;BME280_pressure;Samples;Min_cycle;Max_cycle;Signal;HPM_P1;HPM_P2
2022/03/18 00:00:29;;;;;;;;;;;;;;;21.64;23.72;103139.58;103087;1322;62014;-84
2022/03/18 00:02:55;;;;;;;;;;;;;;;21.64;23.74;103138.69;103249;1320;60464;-84
2022/03/18 00:05:31;;;;;;;;;;;;;;;21.64;23.82;103133.66;103086;1323;72915;-85
2022/03/18 00:07:59;;;;;;;;;;;;;;;21.63;23.73;103133.14;103203;1321;75609;-79
2022/03/18 00:10:28;;;;;;;;;;;;;;;21.63;23.76;103134.77;103008;1320;62120;-82
2022/03/18 00:13:14;;;;;;;;;;;;;;;21.63;23.66;103141.75;103064;1322;62200;-83
2022/03/18 00:15:45;;;;;;;;;;;;;;;21.63;23.71;103145.86;103305;1320;73360;-82
2022/03/18 00:18:15;;;;;;;;;;;;;;;21.63;23.75;103145.89;103139;1320;76805;-83
2022/03/18 00:20:43;;;;;;;;;;;;;;;21.63;23.73;103145.35;103179;1320;62004;-83
2022/03/18 00:23:10;;;;;;;;;;;;;;;21.62;23.75;103146.08;103089;1323;62104;-83
2022/03/18 00:25:39;;;;;;;;;;;;;;;21.63;23.75;103143.02;103026;1321;62115;-82
2022/03/18 00:28:07;;;;;;;;;;;;;;;21.62;23.66;103139.27;103168;1320;75558;-84
2022/03/18 00:30:41;;;;;;;;;;;;;;;21.63;23.71;103143.74;103328;1320;62134;-83
2022/03/18 00:33:25;;;;;;;;;;;;;;;;;;;;;
2022/03/18 00:35:53;;;;;;;;;;;;;;;21.62;23.69;103137.86;103243;1320;72848;-83
2022/03/18 00:38:31;;;;;;;;;;;;;;;21.62;23.70;103140.19;103234;1320;75447;-83
2022/03/18 00:40:57;;;;;;;;;;;;;;;21.62;23.64;103145.02;103258;1320;62145;-82
2022/03/18 00:43:35;;;;;;;;;;;;;;;21.62;23.65;103144.30;103233;1320;62037;-85
2022/03/18 00:46:22;;;;;;;;;;;;;;;21.62;23.65;103143.77;103234;1323;73814;-84
2022/03/18 00:52:07;;;;;;;;;;;;;;;21.62;23.71;103152.72;103226;1320;62100;-83
2022/03/18 00:54:51;;;;;;;;;;;;;;;21.62;23.68;103153.98;103352;1320;62021;-82
2022/03/18 00:57:27;;;;;;;;;;;;;;;21.62;23.70;103154.71;103263;1323;72802;-82
2022/03/18 00:59:56;;;;;;;;;;;;;;;21.62;23.67;103157.21;103215;1320;75922;-85
2022/03/18 01:02:31;;;;;;;;;;;;;;;21.62;23.67;103156.13;103236;1321;62122;-81
2022/03/18 01:04:59;;;;;;;;;;;;;;;21.62;23.63;103155.05;103323;1320;62248;-84
2022/03/18 01:07:28;;;;;;;;;;;;;;;21.63;23.64;103157.02;103049;1323;73802;-87
2022/03/18 01:09:54;;;;;;;;;;;;;;;21.63;23.66;103153.96;103175;1320;75819;-84
2022/03/18 01:12:20;;;;;;;;;;;;;;;21.62;23.65;103155.04;103045;1320;62110;-81
2022/03/18 01:14:48;;;;;;;;;;;;;;;21.63;23.59;103152.70;103222;1320;62135;-82
2022/03/18 01:17:30;;;;;;;;;;;;;;;21.62;23.61;103151.48;103151;1320;73962;-82
2022/03/18 01:20:19;;;;;;;;;;;;;;;21.63;23.69;103145.15;103258;1323;75608;-80
2022/03/18 01:23:01;;;;;;;;;;;;;;;21.62;23.59;103140.72;102652;1325;62037;-81
2022/03/18 01:25:35;;;;;;;;;;;;;;;21.63;23.55;103142.30;102655;1326;62596;-82
2022/03/18 01:28:17;;;;;;;;;;;;;;;;;;;;;
2022/03/18 01:30:50;;;;;;;;;;;;;;;21.63;23.51;103139.04;102657;1328;75649;-83
2022/03/18 01:33:28;;;;;;;;;;;;;;;21.63;23.62;103136.01;102666;1329;62299;-84
2022/03/18 01:36:04;;;;;;;;;;;;;;;21.63;23.55;103137.80;102695;1329;62148;-82
2022/03/18 01:38:38;;;;;;;;;;;;;;;21.63;23.58;103134.05;102587;1329;73787;-83
2022/03/18 01:41:10;;;;;;;;;;;;;;;21.63;23.48;103138.54;102694;1327;76315;-83
2022/03/18 01:44:03;;;;;;;;;;;;;;;21.63;23.52;103140.15;102689;1329;61972;-81
2022/03/18 01:46:37;;;;;;;;;;;;;;;21.63;23.50;103141.39;102653;1329;62277;-84
2022/03/18 01:49:08;;;;;;;;;;;;;;;21.63;23.63;103142.29;102747;1325;74537;-80
2022/03/18 01:51:39;;;;;;;;;;;;;;;21.63;23.62;103147.66;102707;1326;74622;-83
2022/03/18 01:57:10;;;;;;;;;;;;;;;21.64;23.54;103147.11;102797;1325;62103;-83
2022/03/18 01:59:36;;;;;;;;;;;;;;;21.63;23.56;103146.42;102909;1319;72611;-80
2022/03/18 02:02:02;;;;;;;;;;;;;;;21.63;23.49;103151.59;103292;1319;62125;-85
2022/03/18 02:04:34;;;;;;;;;;;;;;;21.63;23.40;103150.17;103311;1320;62141;-83
2022/03/18 02:07:20;;;;;;;;;;;;;;;21.64;23.47;103151.24;102795;1325;62159;-83
2022/03/18 02:09:45;;;;;;;;;;;;;;;21.64;23.51;103149.27;102759;1326;62119;-85
2022/03/18 02:12:14;;;;;;;;;;;;;;;21.63;23.47;103152.35;102739;1323;62020;-84
2022/03/18 02:14:51;;;;;;;;;;;;;;;21.63;23.54;103153.05;102790;1326;62550;-83
2022/03/18 02:17:20;;;;;;;;;;;;;;;21.63;23.52;103151.98;102788;1325;62246;-83
2022/03/18 02:19:47;;;;;;;;;;;;;;;21.62;23.50;103155.23;102770;1326;72478;-82
2022/03/18 02:22:26;;;;;;;;;;;;;;;21.63;23.47;103158.45;102817;1325;76832;-86
2022/03/18 02:25:12;;;;;;;;;;;;;;;21.63;23.51;103160.92;102800;1326;62023;-86
2022/03/18 02:27:52;;;;;;;;;;;;;;;21.63;23.40;103164.33;102714;1327;62125;-83
2022/03/18 02:30:33;;;;;;;;;;;;;;;;;;;;;
2022/03/18 02:33:06;;;;;;;;;;;;;;;21.63;23.46;103172.56;102760;1326;76614;-82
2022/03/18 02:35:36;;;;;;;;;;;;;;;21.64;23.43;103169.67;102748;1326;62014;-82
2022/03/18 02:38:02;;;;;;;;;;;;;;;21.63;23.44;103173.66;102716;1325;62208;-82
2022/03/18 02:40:34;;;;;;;;;;;;;;;21.63;23.42;103176.69;102703;1326;71747;-81
2022/03/18 02:43:14;;;;;;;;;;;;;;;21.63;23.43;103175.26;102826;1325;76384;-84
2022/03/18 02:45:40;;;;;;;;;;;;;;;21.63;23.49;103176.70;103201;1319;62965;-82
2022/03/18 02:48:06;;;;;;;;;;;;;;;21.63;23.46;103182.98;103196;1320;62103;-85
2022/03/18 02:50:54;;;;;;;;;;;;;;;21.63;23.51;103184.58;103256;1320;72840;-85
2022/03/18 02:53:37;;;;;;;;;;;;;;;21.63;23.37;103181.36;103169;1320;76635;-84
2022/03/18 02:56:05;;;;;;;;;;;;;;;21.63;23.38;103183.70;103297;1319;62178;-84
2022/03/18 02:58:40;;;;;;;;;;;;;;;21.63;23.41;103189.26;103331;1320;61997;-84
2022/03/18 03:01:28;;;;;;;;;;;;;;;21.63;23.44;103193.36;103279;1320;72231;-82
2022/03/18 03:03:58;;;;;;;;;;;;;;;21.63;23.39;103197.29;103296;1320;76759;-83
2022/03/18 03:09:18;;;;;;;;;;;;;;;21.63;23.40;103199.81;103316;1319;62140;-82
2022/03/18 03:11:53;;;;;;;;;;;;;;;21.63;23.23;103201.44;103185;1320;74725;-82
2022/03/18 03:14:29;;;;;;;;;;;;;;;21.62;23.35;103203.24;103149;1320;76564;-84
2022/03/18 03:17:00;;;;;;;;;;;;;;;21.63;23.30;103205.73;103205;1320;62023;-83
2022/03/18 03:19:26;;;;;;;;;;;;;;;21.63;23.26;103206.46;103318;1320;62193;-82
2022/03/18 03:21:55;;;;;;;;;;;;;;;21.63;23.33;103209.51;103050;1320;62145;-87
2022/03/18 03:24:50;;;;;;;;;;;;;;;21.62;23.27;103212.39;103156;1320;74463;-84
2022/03/18 03:27:16;;;;;;;;;;;;;;;21.62;23.29;103213.83;103138;1320;61998;-84
2022/03/18 03:30:03;;;;;;;;;;;;;;;21.62;23.25;103212.40;102536;1329;62319;-83
2022/03/18 03:32:40;;;;;;;;;;;;;;;21.62;23.28;103209.89;102508;1331;72753;-82
2022/03/18 03:35:06;;;;;;;;;;;;;;;21.62;23.26;103212.21;102546;1332;75330;-86
2022/03/18 03:37:37;;;;;;;;;;;;;;;21.62;23.26;103212.57;102507;1329;62306;-87
2022/03/18 03:40:12;;;;;;;;;;;;;;;21.62;23.27;103215.63;102346;1328;61970;-84
2022/03/18 03:42:56;;;;;;;;;;;;;;;21.61;23.17;103215.46;102486;1332;74458;-84
2022/03/18 03:45:31;;;;;;;;;;;;;;;21.61;23.25;103216.53;102537;1329;75681;-82
2022/03/18 03:48:00;;;;;;;;;;;;;;;21.62;23.27;103221.73;102533;1329;62048;-84
2022/03/18 03:50:42;;;;;;;;;;;;;;;;;;;;;
2022/03/18 03:53:17;;;;;;;;;;;;;;;21.62;23.21;103230.14;102533;1329;73155;-82
2022/03/18 03:55:46;;;;;;;;;;;;;;;21.62;23.08;103231.02;102527;1329;76799;-81
2022/03/18 03:58:11;;;;;;;;;;;;;;;21.62;23.21;103232.64;102584;1327;61988;-83
2022/03/18 04:00:46;;;;;;;;;;;;;;;21.62;23.14;103238.02;102496;1329;62154;-86
2022/03/18 04:03:22;;;;;;;;;;;;;;;21.62;23.08;103243.95;102597;1329;72810;-83
2022/03/18 04:05:53;;;;;;;;;;;;;;;21.62;23.20;103242.69;102531;1328;75675;-85
2022/03/18 04:08:18;;;;;;;;;;;;;;;21.62;23.09;103246.08;103049;1320;62129;-82
2022/03/18 04:10:49;;;;;;;;;;;;;;;21.62;23.25;103253.60;103135;1320;61840;-81
2022/03/18 04:13:34;;;;;;;;;;;;;;;21.62;23.11;103255.77;103165;1320;73421;-82
2022/03/18 04:16:11;;;;;;;;;;;;;;;21.62;23.19;103261.32;103201;1320;75606;-85
2022/03/18 04:18:47;;;;;;;;;;;;;;;21.62;23.17;103265.27;103246;1322;61336;-87
2022/03/18 04:21:14;;;;;;;;;;;;;;;21.62;23.12;103272.80;103188;1322;62401;-82
2022/03/18 04:23:50;;;;;;;;;;;;;;;21.61;23.19;103277.30;103151;1320;74496;-84
2022/03/18 04:26:21;;;;;;;;;;;;;;;21.61;23.08;103282.48;103178;1320;76088;-84
2022/03/18 04:29:16;;;;;;;;;;;;;;;21.61;23.17;103284.64;103296;1318;62247;-84
2022/03/18 04:31:42;;;;;;;;;;;;;;;21.62;23.15;103290.35;103296;1320;62100;-86
2022/03/18 04:34:24;;;;;;;;;;;;;;;21.62;23.08;103291.80;103231;1320;73859;-83
2022/03/18 04:36:58;;;;;;;;;;;;;;;21.62;23.14;103296.08;103385;1320;76917;-84
2022/03/18 04:39:47;;;;;;;;;;;;;;;21.60;23.06;103297.92;103244;1320;62021;-88
2022/03/18 04:42:22;;;;;;;;;;;;;;;;;;;;;
2022/03/18 04:44:56;;;;;;;;;;;;;;;21.59;23.08;103306.39;103336;1320;72613;-85
2022/03/18 04:47:29;;;;;;;;;;;;;;;21.59;23.16;103306.39;103232;1322;76636;-84
2022/03/18 04:50:04;;;;;;;;;;;;;;;21.59;23.15;103310.52;103334;1317;62122;-85
2022/03/18 04:52:30;;;;;;;;;;;;;;;21.59;23.13;103311.22;103117;1322;60907;-86
2022/03/18 04:55:14;;;;;;;;;;;;;;;21.59;22.93;103312.66;103060;1323;62215;-85
2022/03/18 04:57:43;;;;;;;;;;;;;;;21.61;23.07;103318.34;103182;1321;76774;-83
2022/03/18 05:00:12;;;;;;;;;;;;;;;21.62;22.97;103319.92;103016;1321;62113;-81
2022/03/18 05:02:46;;;;;;;;;;;;;;;21.62;23.05;103319.55;103343;1320;62013;-82
2022/03/18 05:05:12;;;;;;;;;;;;;;;21.64;22.99;103320.93;103147;1320;72837;-82
2022/03/18 05:07:59;;;;;;;;;;;;;;;21.65;23.00;103321.60;103014;1323;62135;-83
2022/03/18 05:10:24;;;;;;;;;;;;;;;21.66;22.82;103326.42;103113;1321;62018;-82
2022/03/18 05:12:53;;;;;;;;;;;;;;;21.68;22.93;103325.27;103128;1320;62257;-87
2022/03/18 05:15:26;;;;;;;;;;;;;;;21.68;22.80;103327.60;103071;1322;72625;-89
2022/03/18 05:18:01;;;;;;;;;;;;;;;21.69;22.83;103330.80;103134;1322;76966;-80
2022/03/18 05:20:40;;;;;;;;;;;;;;;21.70;22.81;103333.45;103283;1320;62020;-85
2022/03/18 05:23:16;;;;;;;;;;;;;;;21.71;22.76;103338.80;103347;1320;62123;-81
2022/03/18 05:25:47;;;;;;;;;;;;;;;21.71;22.61;103340.59;102856;1323;72740;-83
2022/03/18 05:28:12;;;;;;;;;;;;;;;21.71;22.66;103341.13;102867;1323;76658;-83
2022/03/18 05:30:41;;;;;;;;;;;;;;;21.70;22.62;103345.82;103004;1320;62103;-82
2022/03/18 05:33:07;;;;;;;;;;;;;;;21.67;22.57;103346.80;102973;1320;62179;-84
2022/03/18 05:35:33;;;;;;;;;;;;;;;21.65;22.54;103354.42;102891;1319;60738;-83
2022/03/18 05:37:59;;;;;;;;;;;;;;;21.62;22.51;103357.21;102647;1321;62189;-81
2022/03/18 05:40:25;;;;;;;;;;;;;;;21.58;22.41;103360.34;102788;1320;62119;-81
2022/03/18 05:42:55;;;;;;;;;;;;;;;21.54;22.28;103359.23;102543;1320;62115;-81
2022/03/18 05:45:22;;;;;;;;;;;;;;;21.50;22.31;103362.76;102774;1317;74150;-80
2022/03/18 05:47:49;;;;;;;;;;;;;;;21.45;22.22;103362.73;102550;1320;77613;-81
2022/03/18 05:50:15;;;;;;;;;;;;;;;21.39;22.11;103364.34;102689;1319;62167;-81
2022/03/18 05:52:41;;;;;;;;;;;;;;;21.30;22.11;103366.79;102533;1319;62201;-81
2022/03/18 05:55:07;;;;;;;;;;;;;;;21.21;21.99;103361.88;102767;1319;62160;-81
2022/03/18 05:57:33;;;;;;;;;;;;;;;21.13;21.91;103362.48;102470;1320;62170;-80
2022/03/18 05:59:58;;;;;;;;;;;;;;;21.06;21.86;103364.68;102557;1319;62068;-80
2022/03/18 06:02:25;;;;;;;;;;;;;;;21.01;21.74;103367.86;102535;1319;62203;-81
2022/03/18 06:04:52;;;;;;;;;;;;;;;20.95;21.55;103366.63;102203;1320;62223;-80
2022/03/18 06:07:18;;;;;;;;;;;;;;;20.90;21.45;103367.64;102121;1320;62252;-80
2022/03/18 06:12:28;;;;;;;;;;;;;;;20.90;21.30;103370.86;102493;1319;62327;-80
2022/03/18 06:14:54;;;;;;;;;;;;;;;20.94;21.16;103370.41;102489;1320;62083;-80
2022/03/18 06:17:19;;;;;;;;;;;;;;;20.98;21.22;103368.14;102164;1319;62870;-81
2022/03/18 06:19:45;;;;;;;;;;;;;;;21.02;21.28;103368.19;102435;1319;62090;-80
2022/03/18 06:22:11;;;;;;;;;;;;;;;21.08;21.10;103370.16;102650;1319;62282;-80
2022/03/18 06:24:37;;;;;;;;;;;;;;;21.14;21.19;103370.35;103004;1320;62129;-81
2022/03/18 06:27:03;;;;;;;;;;;;;;;21.19;21.06;103373.03;102541;1320;62253;-80
2022/03/18 06:29:29;;;;;;;;;;;;;;;21.25;21.01;103373.59;102799;1319;76667;-83
2022/03/18 06:31:57;;;;;;;;;;;;;;;21.30;21.10;103373.41;102613;1320;62206;-80
2022/03/18 06:34:23;;;;;;;;;;;;;;;21.35;21.13;103377.38;102727;1320;62014;-83
2022/03/18 06:36:49;;;;;;;;;;;;;;;21.39;21.24;103379.21;102562;1320;73765;-80
2022/03/18 06:39:16;;;;;;;;;;;;;;;21.43;21.27;103380.33;103098;1319;62441;-81
2022/03/18 06:41:43;;;;;;;;;;;;;;;21.47;21.31;103375.39;102621;1320;62169;-81
2022/03/18 06:44:08;;;;;;;;;;;;;;;21.49;21.39;103379.09;102574;1319;62206;-82
2022/03/18 06:46:35;;;;;;;;;;;;;;;21.52;21.51;103379.17;103009;1317;62149;-81
2022/03/18 06:49:01;;;;;;;;;;;;;;;21.57;21.72;103380.83;102299;1319;737426;-81
2022/03/18 06:51:26;;;;;;;;;;;;;;;21.59;21.67;103382.35;102835;1319;60154;-80
2022/03/18 06:53:52;;;;;;;;;;;;;;;21.62;21.79;103385.86;102349;1322;62111;-80
2022/03/18 06:56:17;;;;;;;;;;;;;;;21.57;21.76;103385.66;102557;1320;62117;-81
2022/03/18 06:58:43;;;;;;;;;;;;;;;21.46;21.82;103382.04;102380;1320;72254;-81
2022/03/18 07:01:09;;;;;;;;;;;;;;;21.40;21.83;103383.30;103816;1320;60312;-80
2022/03/18 07:03:35;;;;;;;;;;;;;;;21.35;21.78;103378.45;102403;1318;62239;-80
2022/03/18 07:06:01;;;;;;;;;;;;;;;21.32;21.93;103382.31;102444;1319;63790;-80
2022/03/18 07:08:26;;;;;;;;;;;;;;;21.31;22.05;103378.23;102533;1320;62273;-80
2022/03/18 07:10:52;;;;;;;;;;;;;;;21.31;21.83;103379.66;102516;1319;63270;-82
2022/03/18 07:13:18;;;;;;;;;;;;;;;21.33;21.86;103378.34;102685;1320;59583;-81
2022/03/18 07:15:43;;;;;;;;;;;;;;;21.36;21.87;103377.00;102737;1319;62193;-81
2022/03/18 07:18:09;;;;;;;;;;;;;;;21.40;21.94;103378.48;102701;1320;62155;-82
2022/03/18 07:20:37;;;;;;;;;;;;;;;21.42;21.93;103376.97;102839;1319;62138;-80
2022/03/18 07:23:05;;;;;;;;;;;;;;;21.44;21.72;103376.73;102501;1319;61907;-80
2022/03/18 07:25:30;;;;;;;;;;;;;;;21.45;21.63;103372.23;102984;1319;62095;-81
2022/03/18 07:27:56;;;;;;;;;;;;;;;21.46;21.68;103372.04;102499;1320;62186;-80
2022/03/18 07:30:22;;;;;;;;;;;;;;;21.47;21.53;103376.83;102435;1319;62126;-80
2022/03/18 07:32:47;;;;;;;;;;;;;;;21.46;21.44;103377.03;102442;1320;62276;-80
2022/03/18 07:35:14;;;;;;;;;;;;;;;21.45;21.44;103382.10;102570;1319;62155;-81
2022/03/18 07:37:41;;;;;;;;;;;;;;;21.44;21.38;103376.20;104005;1318;60018;-81
2022/03/18 07:40:07;;;;;;;;;;;;;;;21.43;21.26;103375.13;102608;1319;62089;-81
2022/03/18 07:42:40;;;;;;;;;;;;;;;21.44;21.31;103371.36;102835;1319;62051;-81
2022/03/18 07:45:08;;;;;;;;;;;;;;;21.45;21.23;103370.63;102684;1319;61988;-80
2022/03/18 07:47:34;;;;;;;;;;;;;;;21.46;21.21;103374.35;102767;1319;62053;-82
2022/03/18 07:49:59;;;;;;;;;;;;;;;21.47;21.06;103373.77;102511;1319;62327;-81
2022/03/18 07:52:26;;;;;;;;;;;;;;;21.47;21.07;103374.84;102745;1319;62231;-80
2022/03/18 07:54:51;;;;;;;;;;;;;;;21.25;20.60;103378.06;102427;1319;62103;-81
2022/03/18 07:57:17;;;;;;;;;;;;;;;21.04;20.55;103377.80;102406;1319;62259;-79
2022/03/18 07:59:43;;;;;;;;;;;;;;;20.83;20.86;103380.59;102372;1320;62235;-80
2022/03/18 08:02:08;;;;;;;;;;;;;;;20.77;21.14;103371.80;102440;1320;72957;-81
2022/03/18 08:04:34;;;;;;;;;;;;;;;20.81;21.05;103382.80;102759;1319;62263;-82
2022/03/18 08:07:03;;;;;;;;;;;;;;;20.84;21.11;103384.66;102445;1320;62359;-81
2022/03/18 08:09:29;;;;;;;;;;;;;;;20.85;21.13;103384.44;102610;1319;62087;-81
2022/03/18 08:11:56;;;;;;;;;;;;;;;20.88;21.14;103386.16;102231;1320;61990;-80
2022/03/18 08:14:22;;;;;;;;;;;;;;;20.92;21.05;103383.52;102619;1319;62662;-80
2022/03/18 08:16:47;;;;;;;;;;;;;;;20.97;21.04;103382.50;102702;1318;62263;-80
2022/03/18 08:19:14;;;;;;;;;;;;;;;21.02;20.92;103378.39;102713;1319;62244;-80
2022/03/18 08:21:41;;;;;;;;;;;;;;;21.08;20.96;103382.16;102504;1320;62111;-81
2022/03/18 08:24:07;;;;;;;;;;;;;;;21.13;21.06;103384.88;102439;1320;62365;-80
2022/03/18 08:26:36;;;;;;;;;;;;;;;21.16;21.08;103383.54;102497;1320;60464;-80
2022/03/18 08:29:05;;;;;;;;;;;;;;;21.19;21.19;103383.61;102965;1319;62058;-82
2022/03/18 08:31:30;;;;;;;;;;;;;;;21.21;21.00;103385.88;102677;1319;74232;-81
2022/03/18 08:33:56;;;;;;;;;;;;;;;21.24;21.26;103384.37;102637;1319;62234;-80
2022/03/18 08:36:22;;;;;;;;;;;;;;;21.26;21.13;103386.77;102772;1319;62234;-80
2022/03/18 08:38:47;;;;;;;;;;;;;;;21.30;21.32;103389.02;102766;1319;62196;-81
2022/03/18 08:41:13;;;;;;;;;;;;;;;21.32;21.30;103388.96;102490;1320;62244;-80
2022/03/18 08:43:40;;;;;;;;;;;;;;;21.33;21.37;103383.87;102722;1319;72869;-81
2022/03/18 08:46:06;;;;;;;;;;;;;;;21.36;21.30;103380.75;102650;1319;76745;-80
2022/03/18 08:48:31;;;;;;;;;;;;;;;21.37;21.17;103384.85;102688;1319;62158;-81
2022/03/18 08:50:57;;;;;;;;;;;;;;;21.38;21.19;103387.11;102565;1319;65819;-81
2022/03/18 08:53:22;;;;;;;;;;;;;;;21.40;21.34;103377.40;102458;1318;62121;-79
2022/03/18 08:55:48;;;;;;;;;;;;;;;21.37;21.26;103383.05;102238;1320;60828;-80
2022/03/18 08:58:14;;;;;;;;;;;;;;;21.30;21.34;103384.54;102553;1319;76675;-81
2022/03/18 09:00:40;;;;;;;;;;;;;;;21.22;21.44;103383.15;102380;1319;61992;-80
2022/03/18 09:03:05;;;;;;;;;;;;;;;21.14;21.39;103379.84;102309;1320;62258;-80
2022/03/18 09:05:31;;;;;;;;;;;;;;;21.07;21.34;103385.96;102336;1319;62190;-80
2022/03/18 09:07:57;;;;;;;;;;;;;;;21.04;21.43;103377.08;102507;1320;62098;-82
2022/03/18 09:10:46;;;;;;;;;;;;;;;21.01;21.26;103378.59;102314;1320;62168;-83
2022/03/18 09:13:11;;;;;;;;;;;;;;;20.65;20.95;103381.06;102069;1325;62271;-81
2022/03/18 09:15:37;;;;;;;;;;;;;;;20.46;21.05;103375.52;101956;1326;63207;-81
2022/03/18 09:18:06;;;;;;;;;;;;;;;20.42;21.12;103380.83;102029;1326;62291;-81
2022/03/18 09:20:31;;;;;;;;;;;;;;;20.39;21.14;103389.30;102177;1326;62123;-81
2022/03/18 09:22:56;;;;;;;;;;;;;;;20.33;21.05;103385.91;101986;1326;62168;-80
2022/03/18 09:25:22;;;;;;;;;;;;;;;20.31;21.05;103382.20;102086;1326;62132;-81
2022/03/18 09:27:48;;;;;;;;;;;;;;;20.07;20.55;103384.79;102161;1326;62240;-81
2022/03/18 09:30:16;;;;;;;;;;;;;;;19.65;20.30;103380.81;102198;1326;62435;-81
2022/03/18 09:32:43;;;;;;;;;;;;;;;19.64;20.56;103381.20;102113;1325;62068;-82
2022/03/18 09:35:09;;;;;;;;;;;;;;;19.72;20.46;103382.06;102083;1326;60970;-80
2022/03/18 09:37:37;;;;;;;;;;;;;;;19.80;20.47;103378.49;102026;1326;62223;-80
2022/03/18 09:40:05;;;;;;;;;;;;;;;19.84;20.64;103378.23;102137;1326;75629;-80
2022/03/18 09:42:31;;;;;;;;;;;;;;;19.86;20.65;103389.43;102103;1326;62279;-80
2022/03/18 09:44:59;;;;;;;;;;;;;;;19.87;20.65;103377.80;103503;1325;60429;-81
2022/03/18 09:47:25;;;;;;;;;;;;;;;19.93;20.44;103378.18;102138;1326;74055;-81
2022/03/18 09:49:50;;;;;;;;;;;;;;;19.98;20.56;103384.14;102354;1320;62334;-81
2022/03/18 09:52:16;;;;;;;;;;;;;;;20.03;20.85;103379.36;102414;1320;62117;-80
2022/03/18 09:54:42;;;;;;;;;;;;;;;19.91;20.63;103369.30;102381;1321;62195;-81
2022/03/18 09:57:07;;;;;;;;;;;;;;;19.76;20.46;103370.01;102557;1319;62324;-83
2022/03/18 09:59:35;;;;;;;;;;;;;;;19.59;20.34;103369.00;102464;1320;62424;-80
2022/03/18 10:02:20;;;;;;;;;;;;;;;19.33;20.43;103365.34;102260;1320;76723;-80
2022/03/18 10:04:56;;;;;;;;;;;;;;;19.38;20.94;103361.64;102388;1322;62049;-79
2022/03/18 10:07:22;;;;;;;;;;;;;;;19.47;21.22;103358.58;102547;1320;61998;-80
2022/03/18 10:09:48;;;;;;;;;;;;;;;19.59;21.51;103354.52;102269;1322;62036;-80
2022/03/18 10:12:30;;;;;;;;;;;;;;;19.70;21.71;103356.94;102303;1323;62145;-81
2022/03/18 10:15:02;;;;;;;;;;;;;;;19.80;21.61;103352.58;102571;1320;64577;-80
2022/03/18 10:17:39;;;;;;;;;;;;;;;19.90;21.68;103354.66;102275;1320;62123;-80
2022/03/18 10:20:05;;;;;;;;;;;;;;;19.99;21.63;103357.83;102598;1320;72640;-80
2022/03/18 10:22:30;;;;;;;;;;;;;;;20.07;21.69;103353.87;102720;1319;63001;-80
2022/03/18 10:24:58;;;;;;;;;;;;;;;20.15;21.71;103347.59;102416;1323;62738;-81
2022/03/18 10:27:25;;;;;;;;;;;;;;;20.21;21.78;103341.35;102596;1320;62299;-80
2022/03/18 10:29:54;;;;;;;;;;;;;;;20.28;21.75;103339.70;102564;1319;62166;-81
2022/03/18 10:32:24;;;;;;;;;;;;;;;20.36;21.75;103343.63;102694;1323;76501;-80
2022/03/18 10:37:41;;;;;;;;;;;;;;;20.39;21.62;103337.08;102552;1318;62034;-81
2022/03/18 10:40:08;;;;;;;;;;;;;;;20.41;21.61;103338.09;102336;1323;72709;-80
2022/03/18 10:42:34;;;;;;;;;;;;;;;20.44;21.72;103335.15;102373;1323;62197;-81
2022/03/18 10:45:02;;;;;;;;;;;;;;;20.39;21.47;103327.61;102627;1320;64212;-82
2022/03/18 10:47:31;;;;;;;;;;;;;;;20.35;21.49;103330.77;102435;1323;62011;-81
2022/03/18 10:50:11;;;;;;;;;;;;;;;20.38;21.50;103324.22;102242;1323;74191;-80
2022/03/18 10:52:50;;;;;;;;;;;;;;;20.43;21.45;103328.73;102254;1323;75600;-80
2022/03/18 10:55:17;;;;;;;;;;;;;;;20.24;21.26;103328.02;102216;1323;61944;-81
2022/03/18 10:57:48;;;;;;;;;;;;;;;20.07;21.17;103325.80;103731;1323;61135;-82
2022/03/18 11:00:14;;;;;;;;;;;;;;;20.07;21.14;103321.34;102546;1323;72988;-80
2022/03/18 11:02:39;;;;;;;;;;;;;;;20.09;21.14;103314.48;102006;1324;67018;-80
2022/03/18 11:05:05;;;;;;;;;;;;;;;20.15;21.30;103322.00;102180;1323;62162;-82
2022/03/18 11:07:30;;;;;;;;;;;;;;;20.21;21.38;103317.19;101946;1323;62212;-80
2022/03/18 11:12:41;;;;;;;;;;;;;;;20.36;21.34;103319.30;102561;1323;73849;-80
2022/03/18 11:15:07;;;;;;;;;;;;;;;20.43;21.34;103320.89;103057;1323;62096;-80
2022/03/18 11:17:32;;;;;;;;;;;;;;;20.50;21.37;103312.64;102881;1323;60684;-80
2022/03/18 11:20:01;;;;;;;;;;;;;;;20.51;21.42;103312.24;102723;1323;60258;-81
2022/03/18 11:22:27;;;;;;;;;;;;;;;20.20;20.94;103314.38;103755;1322;60929;-81
2022/03/18 11:24:53;;;;;;;;;;;;;;;19.97;21.12;103314.27;103683;1323;60442;-81
2022/03/18 11:27:19;;;;;;;;;;;;;;;19.87;21.17;103311.33;103723;1323;60489;-81
2022/03/18 11:29:44;;;;;;;;;;;;;;;19.79;21.05;103311.34;102764;1326;62599;-82
2022/03/18 11:32:10;;;;;;;;;;;;;;;19.70;20.91;103302.25;102938;1323;62012;-81
2022/03/18 11:34:54;;;;;;;;;;;;;;;19.74;20.97;103294.48;102916;1323;62090;-82
2022/03/18 11:37:20;;;;;;;;;;;;;;;19.79;20.91;103288.81;102968;1323;76876;-81
2022/03/18 11:39:46;;;;;;;;;;;;;;;19.78;20.75;103285.08;102765;1325;62134;-80
2022/03/18 11:42:12;;;;;;;;;;;;;;;19.80;20.86;103277.55;102969;1323;62262;-80
2022/03/18 11:44:44;;;;;;;;;;;;;;;19.86;20.79;103277.58;103569;1320;61148;-81
2022/03/18 11:47:30;;;;;;;;;;;;;;;19.82;20.61;103279.98;103800;1320;75984;-80
2022/03/18 11:49:56;;;;;;;;;;;;;;;19.72;20.45;103272.55;103690;1320;61140;-81
2022/03/18 11:52:21;;;;;;;;;;;;;;;19.69;20.29;103273.89;103759;1320;60260;-81
2022/03/18 11:54:50;;;;;;;;;;;;;;;19.65;20.15;103277.20;103644;1320;60552;-81
2022/03/18 11:57:46;;;;;;;;;;;;;;;19.61;20.14;103271.79;103935;1320;77090;-81
2022/03/18 12:00:42;;;;;;;;;;;;;;;19.56;19.98;103272.60;103528;1325;61636;-80
2022/03/18 12:03:08;;;;;;;;;;;;;;;19.54;20.02;103268.56;102596;1328;62027;-80
2022/03/18 12:05:33;;;;;;;;;;;;;;;19.52;19.89;103259.33;102638;1329;61003;-80
2022/03/18 12:08:03;;;;;;;;;;;;;;;19.38;19.85;103251.09;102644;1326;62204;-81
2022/03/18 12:10:35;;;;;;;;;;;;;;;19.38;19.81;103259.14;102726;1326;61459;-80
2022/03/18 12:13:02;;;;;;;;;;;;;;;19.33;19.76;103255.69;103519;1326;60511;-80
2022/03/18 12:15:28;;;;;;;;;;;;;;;19.33;19.76;103261.23;103518;1325;73003;-80
2022/03/18 12:17:54;;;;;;;;;;;;;;;19.37;19.94;103252.02;103426;1325;60617;-82
2022/03/18 12:20:21;;;;;;;;;;;;;;;19.44;19.89;103250.60;103520;1325;60565;-80
2022/03/18 12:22:47;;;;;;;;;;;;;;;19.48;19.88;103244.23;103501;1325;60637;-81
2022/03/18 12:25:12;;;;;;;;;;;;;;;19.55;19.89;103241.21;103468;1325;60502;-80
2022/03/18 12:27:40;;;;;;;;;;;;;;;19.61;20.04;103236.40;103407;1326;60183;-80
2022/03/18 12:30:09;;;;;;;;;;;;;;;19.65;20.03;103235.60;102699;1326;60466;-80
2022/03/18 12:32:37;;;;;;;;;;;;;;;19.67;20.00;103236.40;102302;1325;62132;-81
2022/03/18 12:35:04;;;;;;;;;;;;;;;19.63;19.84;103221.90;102252;1326;75049;-81
2022/03/18 12:37:36;;;;;;;;;;;;;;;19.64;19.91;103218.64;103148;1320;76522;-81
2022/03/18 12:40:09;;;;;;;;;;;;;;;19.67;19.90;103219.27;102802;1320;62419;-81
2022/03/18 12:42:45;;;;;;;;;;;;;;;19.71;19.99;103217.55;102675;1319;62016;-81
2022/03/18 12:45:11;;;;;;;;;;;;;;;19.78;20.20;103226.11;102498;1320;73959;-82
2022/03/18 12:47:37;;;;;;;;;;;;;;;19.75;20.11;103216.36;103774;1320;75537;-82
2022/03/18 12:50:03;;;;;;;;;;;;;;;19.77;20.20;103211.13;103885;1320;60575;-81
2022/03/18 12:52:28;;;;;;;;;;;;;;;19.80;20.23;103207.48;103862;1320;59890;-82
2022/03/18 12:55:07;;;;;;;;;;;;;;;19.80;20.24;103205.70;103768;1321;60270;-81
2022/03/18 12:57:37;;;;;;;;;;;;;;;19.72;19.92;103212.17;103994;1317;75573;-81
2022/03/18 13:00:03;;;;;;;;;;;;;;;19.51;19.78;103204.50;103871;1319;60485;-81
2022/03/18 13:02:29;;;;;;;;;;;;;;;19.49;19.76;103203.51;103411;1320;60499;-80
2022/03/18 13:04:55;;;;;;;;;;;;;;;19.50;20.01;103197.05;103198;1320;60283;-80